METAR Data
IDs: Format: Raw Decoded Include TAF

Data at: 2154 UTC 22 Sep 2020

KRYV 222135Z AUTO 22007KT 10SM CLR 25/14 A3007 RMK AO2 T02520143
KRYV 222115Z AUTO 21006KT 10SM CLR 25/14 A3007 RMK AO2 T02510141
KRYV 222055Z AUTO 21005KT 10SM CLR 26/14 A3008 RMK AO2 T02550144
KRYV 222035Z AUTO 22006KT 10SM CLR 26/15 A3008 RMK AO2 T02580148
KRYV 222015Z AUTO 26003KT 10SM CLR 26/14 A3009 RMK AO2 T02560141
KRYV 221955Z AUTO 24006KT 10SM CLR 26/14 A3009 RMK AO2 T02550142
KRYV 221935Z AUTO 25005KT 10SM CLR 25/14 A3009 RMK AO2 T02540144
KRYV 221915Z AUTO 23005KT 10SM CLR 25/15 A3010 RMK AO2 T02510149
KRYV 221855Z AUTO 20004KT 10SM CLR 25/15 A3011 RMK AO2 T02500146
KRYV 221835Z AUTO 21005KT 10SM CLR 25/15 A3012 RMK AO2 T02490147
KRYV 221815Z AUTO 25004KT 10SM CLR 25/14 A3013 RMK AO2 T02450143
KRYV 221755Z AUTO 22006KT 10SM CLR 24/15 A3014 RMK AO2 T02410145 10241 20120
KRYV 221735Z AUTO 23004KT 10SM CLR 24/14 A3015 RMK AO2 T02400138
KRYV 221715Z AUTO 25008KT 10SM CLR 23/13 A3015 RMK AO2 T02330133
KRYV 221655Z AUTO 25006KT 10SM CLR 23/13 A3016 RMK AO2 T02270131
KRYV 221635Z AUTO 23006KT 10SM CLR 23/14 A3016 RMK AO2 T02260138
KRYV 221615Z AUTO 26007KT 10SM CLR 22/13 A3016 RMK AO2 T02190133
KRYV 221555Z AUTO 24008KT 10SM CLR 21/13 A3017 RMK AO2 T02080132
KRYV 221535Z AUTO 23005KT 10SM CLR 20/14 A3018 RMK AO2 T01960135
KRYV 221515Z AUTO 20004KT 10SM CLR 18/13 A3018 RMK AO2 T01790129
KRYV 221455Z AUTO 21004KT 10SM CLR 17/12 A3019 RMK AO2 T01700124
KRYV 221435Z AUTO 24003KT 10SM CLR 16/12 A3020 RMK AO2 T01630118
KRYV 221415Z AUTO 22004KT 10SM CLR 16/11 A3020 RMK AO2 T01560114
KRYV 221355Z AUTO 19005KT 10SM CLR 15/11 A3019 RMK AO2 T01500109
KRYV 221335Z AUTO 20003KT 10SM CLR 15/11 A3020 RMK AO2 T01510107
KRYV 221315Z AUTO 23004KT 10SM CLR 14/11 A3020 RMK AO2 T01420105
KRYV 221255Z AUTO 00000KT 10SM CLR 14/10 A3019 RMK AO2 T01350101
KRYV 221235Z AUTO 00000KT 10SM CLR 12/10 A3019 RMK AO2 T01210097
KRYV 221215Z AUTO 17003KT 10SM CLR 12/10 A3019 RMK AO2 T01220095
KRYV 221155Z AUTO 00000KT 10SM CLR 12/09 A3019 RMK AO2 T01200092 10142 20110
KRYV 221135Z AUTO 00000KT 10SM CLR 12/09 A3020 RMK AO2 T01170092
KRYV 221115Z AUTO 00000KT 10SM SCT110 12/10 A3019 RMK AO2 T01150095
KRYV 221055Z AUTO 00000KT 10SM CLR 12/10 A3019 RMK AO2 T01170099
KRYV 221035Z AUTO 00000KT 10SM CLR 12/10 A3020 RMK AO2 T01170100
KRYV 221015Z AUTO 00000KT 10SM CLR 12/10 A3020 RMK AO2 T01160100
KRYV 220955Z AUTO 00000KT 10SM CLR 12/10 A3020 RMK AO2 T01160096
KRYV 220935Z AUTO 00000KT 10SM CLR 11/11 A3020 RMK AO2 T01120106
KRYV 220915Z AUTO 00000KT 10SM CLR 11/10 A3020 RMK AO2 T01110099
KRYV 220855Z AUTO 00000KT 10SM CLR 11/10 A3021 RMK AO2 T01120098
KRYV 220835Z AUTO 00000KT 10SM CLR 12/10 A3021 RMK AO2 T01170095
KRYV 220815Z AUTO 00000KT 10SM CLR 12/09 A3021 RMK AO2 T01220089
KRYV 220755Z AUTO 00000KT 10SM SCT110 13/09 A3021 RMK AO2 T01300089
KRYV 220735Z AUTO 00000KT 10SM SCT110 13/09 A3021 RMK AO2 T01330088
KRYV 220715Z AUTO 00000KT 10SM CLR 14/09 A3021 RMK AO2 T01360086
KRYV 220655Z AUTO 00000KT 10SM CLR 14/09 A3021 RMK AO2 T01350085
KRYV 220635Z AUTO 00000KT 10SM CLR 14/08 A3021 RMK AO2 T01380081
KRYV 220615Z AUTO 17003KT 10SM CLR 14/08 A3021 RMK AO2 T01380082
KRYV 220555Z AUTO 00000KT 10SM CLR 14/08 A3021 RMK AO2 T01420084 10177 20140 402250080
KRYV 220535Z AUTO 19003KT 10SM CLR 15/08 A3022 RMK AO2 T01460082
KRYV 220515Z AUTO 17003KT 10SM CLR 15/08 A3022 RMK AO2 LTG DSNT N T01500080
KRYV 220455Z AUTO 19003KT 10SM VCTS CLR 15/08 A3022 RMK AO2 T01520080
KRYV 220435Z AUTO 17008KT 10SM CLR 15/08 A3021 RMK AO2 T01470084
KRYV 220415Z AUTO 18004KT 10SM CLR 15/08 A3023 RMK AO2 T01480084
KRYV 220355Z AUTO 17005KT 10SM CLR 15/09 A3022 RMK AO2 LTG DSNT NE T01470085
KRYV 220335Z AUTO 17006KT 10SM CLR 15/09 A3022 RMK AO2 LTG DSNT NW T01470085
KRYV 220315Z AUTO 18004KT 10SM CLR 16/09 A3022 RMK AO2 T01550085
KRYV 220255Z AUTO 17003KT 10SM CLR 15/09 A3021 RMK AO2 T01540086
KRYV 220235Z AUTO 15004KT 10SM CLR 16/09 A3021 RMK AO2 T01550087
KRYV 220215Z AUTO 15004KT 10SM CLR 16/09 A3022 RMK AO2 T01550087
KRYV 220155Z AUTO 15004KT 10SM CLR 16/09 A3022 RMK AO2 T01550089
KRYV 220135Z AUTO 15005KT 10SM CLR 15/09 A3022 RMK AO2 T01500090
KRYV 220115Z AUTO 14004KT 10SM CLR 16/09 A3022 RMK AO2 T01560090
KRYV 220055Z AUTO 15004KT 10SM CLR 16/09 A3021 RMK AO2 T01560090
KRYV 220035Z AUTO 15004KT 10SM CLR 17/09 A3022 RMK AO2 T01650089
KRYV 220015Z AUTO 15005KT 10SM CLR 17/09 A3022 RMK AO2 T01690090
KRYV 212355Z AUTO 16004KT 10SM CLR 18/09 A3022 RMK AO2 T01780090 10225 20178
KRYV 212335Z AUTO 16004KT 10SM CLR 19/09 A3022 RMK AO2 T01870091
KRYV 212315Z AUTO 16004KT 10SM CLR 20/10 A3023 RMK AO2 T01950098
KRYV 212255Z AUTO 17003KT 10SM CLR 20/10 A3023 RMK AO2 T02040096
KRYV 212235Z AUTO 19006KT 10SM CLR 21/10 A3023 RMK AO2 LTG DSNT NW T02090096
KRYV 212215Z AUTO 17006KT 10SM CLR 21/09 A3023 RMK AO2 T02140092
KRYV 212155Z AUTO 19005KT 10SM CLR 22/09 A3023 RMK AO2 T02180093
KRYV 212135Z AUTO 20009KT 10SM CLR 22/09 A3023 RMK AO2 T02210091
KRYV 212115Z AUTO 18007KT 10SM CLR 22/09 A3024 RMK AO2 T02230092
KRYV 212055Z AUTO 17005KT 10SM CLR 22/08 A3025 RMK AO2 LTG DSNT NW T02210084
KRYV 212035Z AUTO 19009KT 10SM CLR 22/08 A3025 RMK AO2 T02220081
KRYV 212015Z AUTO 20009KT 10SM CLR 22/09 A3026 RMK AO2 T02240086
KRYV 211955Z AUTO 19009KT 10SM CLR 22/08 A3027 RMK AO2 T02240082
KRYV 211935Z AUTO 17009KT 10SM CLR 22/08 A3027 RMK AO2 T02220084
KRYV 211915Z AUTO 21007G10KT 10SM CLR 22/08 A3028 RMK AO2 T02190079
KRYV 211855Z AUTO 17008G14KT 10SM CLR 22/08 A3029 RMK AO2 T02170077
KRYV 211835Z AUTO 20011G16KT 10SM CLR 22/08 A3030 RMK AO2 T02170077
KRYV 211815Z AUTO 16010KT 10SM CLR 21/08 A3031 RMK AO2 T02140081
KRYV 211755Z AUTO 21008KT 10SM CLR 21/08 A3032 RMK AO2 LTG DSNT W T02110079 10213 20083
KRYV 211735Z AUTO 22009KT 10SM CLR 21/08 A3032 RMK AO2 T02100079
KRYV 211715Z AUTO 21009KT 10SM CLR 21/08 A3033 RMK AO2 T02050080
KRYV 211655Z AUTO 20009KT 10SM CLR 20/08 A3034 RMK AO2 T02010081
KRYV 211635Z AUTO 20011KT 10SM CLR 20/08 A3034 RMK AO2 T01960077
KRYV 211615Z AUTO 21007KT 10SM CLR 19/08 A3035 RMK AO2 T01890075
KRYV 211555Z AUTO 19007KT 10SM CLR 18/08 A3036 RMK AO2 LTG DSNT W T01840076
KRYV 211535Z AUTO 20011G14KT 10SM CLR 18/07 A3036 RMK AO2 T01760070
KRYV 211515Z AUTO 20008KT 10SM CLR 17/07 A3037 RMK AO2 T01660067
KRYV 211455Z AUTO 19008KT 10SM CLR 16/06 A3036 RMK AO2 T01550064
KRYV 211435Z AUTO 18007KT 10SM CLR 14/06 A3036 RMK AO2 T01440058
KRYV 211415Z AUTO 17007KT 10SM CLR 13/06 A3036 RMK AO2 T01340056
KRYV 211355Z AUTO 17005KT 10SM CLR 12/06 A3036 RMK AO2 T01240057
KRYV 211335Z AUTO 18005KT 10SM CLR 12/06 A3036 RMK AO2 T01150059
KRYV 211315Z AUTO 16003KT 10SM SCT002 11/06 A3036 RMK AO2 T01050056
KRYV 211255Z AUTO 00000KT 10SM CLR 10/05 A3036 RMK AO2 T00960051
KRYV 211235Z AUTO 15004KT 10SM CLR 09/05 A3036 RMK AO2 T00910047
KRYV 211215Z AUTO 16004KT 10SM CLR 09/05 A3036 RMK AO2 T00860045
KRYV 211155Z AUTO 15003KT 10SM CLR 08/05 A3035 RMK AO2 T00840045 10111 20080
KRYV 211135Z AUTO 15004KT 10SM CLR 08/05 A3035 RMK AO2 T00840045
KRYV 211115Z AUTO 16003KT 10SM CLR 09/05 A3035 RMK AO2 T00870046
KRYV 211055Z AUTO 00000KT 10SM CLR 09/05 A3035 RMK AO2 T00930046
KRYV 211035Z AUTO 16003KT 10SM CLR 10/05 A3034 RMK AO2 T00960047
KRYV 211015Z AUTO 15004KT 10SM CLR 10/05 A3034 RMK AO2 T00970050
KRYV 210955Z AUTO 15004KT 10SM CLR 10/05 A3035 RMK AO2 T00970050